CLY weather

Calvi-Sainte-Catherine Airport
Calvi/Sainte-Catherine, Corsica, France

Public forecast

Using degrees Celsius for public forecast. Weather courtesy of forecast.io.

METAR (pilot weather report)

Retrieved 2019/06/17 18:30 UTC (0 seconds ago):

LFKC 171830Z AUTO 02005KT CAVOK 22/17 Q1014 NOSIG

TAF (pilot weather forecast)

Retrieved 2019/06/17 15:00 UTC (3 hours ago):

TAF LFKC 171400Z 1715/1815 02008KT CAVOK TX28/1812Z TN16/1803Z BECMG 1718/1720 20005KT BECMG 1807/1810 02008KT